Accueil
METAR-TAF:

METAR-TAF

Aéroports :

Bric della Croce

Turin, Italie

latitude: 45-02N, longitude: 007-44E, altitude: 709 m

Observation

Le bulletin a été fait il y a 1 heure et 29 minutes, à 17:55 UTC
Vent 5 kt de est/sud-est, variant entre nord/nord-ouest et sud/sud-est
Température 15°C
Humidité 88%
Pression 1004 hPa
Visibilité 10 km ou plus
Nuages fragmentés à une hauteur de 3000 ft

METAR: LIMK 301755Z 12005KT 340V150 9999 BKN030 15/13 Q1004 RMK BKN VAL FOSCHIA VIS MIN 9999

Heure: 21:24 (19:24 UTC)


TAF: absent

Observations et prévisions météorologiques de plus de 4000 aéroports (messages METAR et TAF).

Les stations disponibles sont représentées par des disques jaunes et rouges sur la carte.

Passer la souris dessus pour voir le nom de la station.

Cliquer dessus pour voir les observations et prévisions météorologiques.

Pour changer de carte: cliquez sur les boutons verts avec une croix noire pour zoomer, sur le bouton vert avec un tiret pour effectuer un zoom arrière, ou sur les flèches vertes pour les cartes adjacentes.


METAR-TAF: